ABX weather

Albury Airport
Albury, New South Wales, Australia

Public forecast

Using degrees Celsius for public forecast. Weather courtesy of forecast.io.

METAR (pilot weather report)

Retrieved 2018/06/23 13:33 UTC (0 seconds ago):

YMAY 231333Z AUTO 00000KT 0350 // SCT001 03/03 Q1028

TAF (pilot weather forecast)

Forecast is more than 6 hours old.

Closest forecast is Wangaratta Airport, 37.8 nm (70.0 km) WSW. Retrieved 2018/06/23 02:36 UTC (11 hours ago):

TAF TAF YWGT 230133Z 2302/2314 VRB05KT 9999 SCT035 FM230400 26005KT 9999 BKN030 FM231200 VRB05KT 2000 BR BKN004 PROB30 2309/2314 0500 FG BKN002